TAF KMCK
KMCK 072320Z 0800/0824 15005KT P6SM FEW250 FM080700 21006KT P6SM FEW250 FM080800 VRB05KT P6SM FEW250 FM081600 19007KT P6SM SKC FM082000 17013G20KT P6SM FEW250=
METAR KMCK
WC KMCK
WS KMCK
WV KMCK